Time;durP1;ratioP1;P1;durP2;ratioP2;P2;SDS_P1;SDS_P2;PMS_P1;PMS_P2;Temp;Humidity;BMP_temperature;BMP_pressure;BME280_temperature;BME280_humidity;BME280_pressure;Samples;Min_cycle;Max_cycle;Signal;HPM_P1;HPM_P2
2023/04/16 00:00:35;;;;;;;0.60;0.60;;;;;;;22.32;39.61;100745.44;4531751;28;20107;-58
2023/04/16 00:02:45;;;;;;;0.38;0.30;;;;;;;22.36;39.76;100752.06;4516876;28;20127;-58
2023/04/16 00:04:56;;;;;;;0.45;0.45;;;;;;;22.34;39.97;100748.78;4531905;28;20144;-58
2023/04/16 00:07:07;;;;;;;0.40;0.40;;;;;;;22.36;39.96;100754.16;4536988;28;20033;-59
2023/04/16 00:09:17;;;;;;;0.50;0.50;;;;;;;22.36;39.92;100751.28;4537215;28;20033;-59
2023/04/16 00:11:28;;;;;;;0.40;0.40;;;;;;;22.31;39.48;100748.69;4534063;28;20709;-59
2023/04/16 00:13:38;;;;;;;0.73;0.52;;;;;;;22.32;39.58;100750.34;4537040;28;20041;-59
2023/04/16 00:15:48;;;;;;;0.50;0.50;;;;;;;22.32;39.99;100750.34;4536455;28;20071;-58
2023/04/16 00:17:59;;;;;;;0.50;0.50;;;;;;;22.14;39.85;100721.16;4533798;28;20125;-58
2023/04/16 00:20:10;;;;;;;0.57;0.52;;;;;;;22.33;39.80;100749.97;4534477;28;20045;-58
2023/04/16 00:22:20;;;;;;;0.40;0.40;;;;;;;22.27;39.63;100742.00;4535295;28;20037;-57
2023/04/16 00:24:31;;;;;;;0.60;0.40;;;;;;;22.34;39.80;100754.53;4533649;28;20029;-58
2023/04/16 00:26:43;;;;;;;0.47;0.47;;;;;;;22.33;39.84;100752.00;4534758;28;20040;-58
2023/04/16 00:28:53;;;;;;;0.50;0.50;;;;;;;22.30;39.58;100747.00;4531283;28;20033;-58
2023/04/16 00:31:04;;;;;;;0.52;0.52;;;;;;;22.32;39.99;100756.09;4518063;28;20050;-57
2023/04/16 00:33:14;;;;;;;0.40;0.40;;;;;;;22.33;39.74;100749.13;4537013;28;20025;-59
2023/04/16 00:35:25;;;;;;;0.40;0.40;;;;;;;22.33;39.83;100752.00;4535990;28;20033;-59
2023/04/16 00:37:36;;;;;;;0.60;0.60;;;;;;;22.30;39.94;100749.88;4520918;28;20045;-58
2023/04/16 00:39:46;;;;;;;0.50;0.50;;;;;;;22.35;39.95;100755.34;4536970;28;20037;-58
2023/04/16 00:41:56;;;;;;;0.40;0.40;;;;;;;22.31;39.84;100754.44;4537092;28;20919;-58
2023/04/16 00:44:07;;;;;;;0.40;0.40;;;;;;;22.35;39.67;100761.09;4535002;28;20080;-58
2023/04/16 00:46:20;;;;;;;0.35;0.35;;;;;;;22.33;39.87;100758.59;4535683;28;20545;-59
2023/04/16 00:48:31;;;;;;;0.50;0.50;;;;;;;22.33;39.55;100752.00;4532943;28;20135;-58
2023/04/16 00:50:42;;;;;;;0.30;0.30;;;;;;;22.34;39.83;100759.44;4535121;28;20587;-58
2023/04/16 00:52:53;;;;;;;0.50;0.50;;;;;;;22.35;39.52;100755.34;4533433;28;21831;-58
2023/04/16 00:55:05;;;;;;;0.50;0.50;;;;;;;22.35;39.64;100761.94;4534415;28;20393;-59
2023/04/16 00:57:19;;;;;;;0.50;0.50;;;;;;;22.34;39.49;100753.69;4532798;28;20149;-58
2023/04/16 00:59:30;;;;;;;0.40;0.40;;;;;;;22.32;39.97;100759.81;4509412;28;20615;-58
2023/04/16 01:01:40;;;;;;;0.50;0.50;;;;;;;22.30;39.45;100749.88;4533653;28;20083;-59
2023/04/16 01:03:51;;;;;;;0.43;0.43;;;;;;;22.32;39.97;100762.69;4535148;28;20125;-58
2023/04/16 01:06:02;;;;;;;0.60;0.60;;;;;;;22.31;39.47;100761.00;4531540;28;20903;-58
2023/04/16 01:08:17;;;;;;;0.50;0.50;;;;;;;22.30;39.55;100765.09;4533915;28;20047;-58
2023/04/16 01:10:28;;;;;;;0.40;0.40;;;;;;;22.32;39.67;100762.69;4510893;28;20045;-58
2023/04/16 01:12:38;;;;;;;0.47;0.47;;;;;;;22.32;39.68;100764.72;4532978;28;20037;-58
2023/04/16 01:14:49;;;;;;;0.60;0.60;;;;;;;22.31;40.03;100760.19;4532888;28;20574;-58
2023/04/16 01:17:00;;;;;;;0.50;0.50;;;;;;;22.31;39.67;100761.00;4532925;28;20083;-58
2023/04/16 01:19:10;;;;;;;0.40;0.40;;;;;;;22.27;39.62;100756.38;4537429;28;20043;-58
2023/04/16 01:21:21;;;;;;;0.50;0.50;;;;;;;22.30;39.45;100762.22;4533454;28;20129;-58
2023/04/16 01:23:31;;;;;;;0.50;0.50;;;;;;;22.28;39.69;100760.94;4517196;28;20073;-58
2023/04/16 01:25:42;;;;;;;0.55;0.50;;;;;;;22.30;39.71;100770.00;4533141;28;21133;-58
2023/04/16 01:27:53;;;;;;;0.50;0.50;;;;;;;22.27;39.95;100762.13;4514885;28;20041;-58
2023/04/16 01:30:04;;;;;;;0.50;0.50;;;;;;;22.29;40.09;100765.47;4535811;28;20044;-58
2023/04/16 01:32:26;;;;;;;0.40;0.40;;;;;;;22.20;39.91;100757.88;4534096;28;20083;-59
2023/04/16 01:34:36;;;;;;;0.88;0.70;;;;;;;22.28;39.79;100767.50;4534576;28;20511;-58
2023/04/16 01:36:46;;;;;;;0.50;0.50;;;;;;;22.28;39.59;100773.25;4535700;28;20176;-61
2023/04/16 01:38:57;;;;;;;0.60;0.60;;;;;;;22.29;39.53;100774.94;4536271;28;20228;-59
2023/04/16 01:41:07;;;;;;;0.50;0.50;;;;;;;22.28;39.65;100773.25;4534731;28;20122;-59
2023/04/16 01:43:18;;;;;;;0.50;0.50;;;;;;;22.28;39.56;100784.75;4534343;28;20021;-58
2023/04/16 01:45:33;;;;;;;0.40;0.40;;;;;;;22.28;39.55;100775.31;4533916;28;20837;-58
2023/04/16 01:47:43;;;;;;;0.50;0.50;;;;;;;22.26;39.95;100780.59;4515998;28;20049;-58
2023/04/16 01:49:54;;;;;;;0.50;0.50;;;;;;;22.27;39.69;100788.84;4533686;28;20137;-58
2023/04/16 01:52:06;;;;;;;0.60;0.60;;;;;;;22.28;39.99;100779.00;4532296;28;20033;-58
2023/04/16 01:54:17;;;;;;;0.60;0.60;;;;;;;22.25;39.54;100778.94;4518575;28;20174;-59
2023/04/16 01:56:27;;;;;;;0.40;0.40;;;;;;;22.24;39.90;100783.84;4515388;28;20429;-58
2023/04/16 01:58:38;;;;;;;0.52;0.43;;;;;;;22.27;39.74;100788.84;4516118;28;20087;-58
2023/04/16 02:00:49;;;;;;;0.50;0.50;;;;;;;22.14;39.95;100772.91;4530800;28;20068;-58
2023/04/16 02:02:59;;;;;;;0.47;0.47;;;;;;;22.29;39.54;100792.19;4530979;28;20569;-58
2023/04/16 02:05:11;;;;;;;0.47;0.47;;;;;;;22.26;39.67;100787.19;4528454;28;20049;-58
2023/04/16 02:07:23;;;;;;;0.60;0.60;;;;;;;22.27;39.79;100791.72;4521770;28;20028;-58
2023/04/16 02:09:38;;;;;;;0.40;0.40;;;;;;;22.27;39.63;100782.25;4532898;28;20098;-58
2023/04/16 02:11:50;;;;;;;0.52;0.52;;;;;;;22.26;39.70;100786.34;4529758;28;20041;-58
2023/04/16 02:14:00;;;;;;;0.47;0.47;;;;;;;22.24;39.50;100795.34;4496980;28;20073;-58
2023/04/16 02:16:11;;;;;;;0.43;0.43;;;;;;;22.23;39.70;100797.38;4528354;28;20566;-59
2023/04/16 02:18:34;;;;;;;0.63;0.63;;;;;;;22.25;39.86;100801.94;4518100;28;20036;-60
2023/04/16 02:20:46;;;;;;;0.40;0.40;;;;;;;22.27;40.10;100803.22;4512827;28;20037;-58
2023/04/16 02:22:57;;;;;;;0.50;0.50;;;;;;;22.20;39.56;100792.38;4528332;28;20687;-58
2023/04/16 02:25:08;;;;;;;1.15;0.50;;;;;;;22.25;40.05;100808.50;4511090;28;20029;-58
2023/04/16 02:27:19;;;;;;;0.50;0.50;;;;;;;22.28;39.84;100812.69;4528799;28;20040;-58
2023/04/16 02:29:31;;;;;;;0.52;0.52;;;;;;;22.28;39.79;100806.94;4529672;28;20038;-59
2023/04/16 02:31:49;;;;;;;0.43;0.43;;;;;;;22.28;39.67;100801.19;4518664;28;20017;-59
2023/04/16 02:34:00;;;;;;;1.00;0.43;;;;;;;22.24;39.58;100801.09;4519469;28;20490;-58
2023/04/16 02:36:11;;;;;;;1.25;0.50;;;;;;;22.26;39.61;100801.56;4512042;28;20037;-58
2023/04/16 02:38:22;;;;;;;0.40;0.40;;;;;;;22.25;40.09;100808.50;4514916;28;20042;-58
2023/04/16 02:40:32;;;;;;;0.60;0.60;;;;;;;22.25;39.88;100802.75;4532336;28;20495;-58
2023/04/16 02:42:43;;;;;;;0.50;0.50;;;;;;;22.25;39.81;100802.75;4519101;28;20025;-61
2023/04/16 02:44:54;;;;;;;0.50;0.50;;;;;;;22.27;39.61;100802.38;4514962;28;20120;-59
2023/04/16 02:47:04;;;;;;;0.50;0.50;;;;;;;22.27;39.91;100806.09;4529283;28;20041;-58
2023/04/16 02:49:14;;;;;;;0.40;0.40;;;;;;;22.24;39.99;100795.34;4529022;28;20041;-58
2023/04/16 02:51:25;;;;;;;0.40;0.40;;;;;;;22.26;39.94;100803.59;4528478;28;20029;-61
2023/04/16 02:53:35;;;;;;;0.50;0.50;;;;;;;22.22;39.66;100800.63;4510468;28;20048;-59
2023/04/16 02:55:51;;;;;;;0.40;0.40;;;;;;;22.23;40.07;100804.34;4529738;28;20037;-58
2023/04/16 02:58:01;;;;;;;0.50;0.50;;;;;;;22.23;39.74;100787.09;4530938;28;20637;-58
2023/04/16 03:00:12;;;;;;;0.60;0.60;;;;;;;22.25;39.88;100790.44;4528731;28;20120;-59
2023/04/16 03:02:23;;;;;;;0.50;0.50;;;;;;;22.25;39.96;100797.00;4511509;28;20276;-58
2023/04/16 03:04:36;;;;;;;0.50;0.50;;;;;;;22.23;39.74;100792.84;4511322;28;20033;-59
2023/04/16 03:06:46;;;;;;;0.50;0.50;;;;;;;22.23;39.72;100798.59;4532533;28;20586;-58
2023/04/16 03:08:57;;;;;;;0.43;0.43;;;;;;;22.23;39.60;100794.50;4511894;28;20076;-58
2023/04/16 03:11:07;;;;;;;0.60;0.60;;;;;;;22.19;39.53;100793.59;4529768;28;20030;-59
2023/04/16 03:13:18;;;;;;;0.40;0.40;;;;;;;22.21;40.05;100802.66;4529867;28;20045;-59
2023/04/16 03:15:29;;;;;;;0.50;0.50;;;;;;;22.24;39.85;100809.72;4528559;28;20120;-58
2023/04/16 03:17:40;;;;;;;0.50;0.50;;;;;;;22.20;40.08;100806.75;4529799;28;20056;-59
2023/04/16 03:19:50;;;;;;;0.40;0.40;;;;;;;22.22;39.90;100806.38;4512263;28;20085;-59
2023/04/16 03:22:03;;;;;;;0.57;0.57;;;;;;;22.16;40.03;100802.13;4512610;28;20623;-58
2023/04/16 03:24:14;;;;;;;0.40;0.40;;;;;;;22.21;39.84;100825.66;4521709;28;20557;-58
2023/04/16 03:26:24;;;;;;;0.50;0.50;;;;;;;22.22;39.57;100820.75;4529018;28;20037;-58
2023/04/16 03:28:35;;;;;;;0.50;0.50;;;;;;;22.24;40.04;100818.34;4529401;28;20087;-58
2023/04/16 03:30:50;;;;;;;0.57;0.57;;;;;;;22.23;39.97;100821.59;4529501;28;20112;-58
2023/04/16 03:33:00;;;;;;;0.43;0.43;;;;;;;22.23;39.95;100822.44;4528903;28;20573;-58
2023/04/16 03:35:12;;;;;;;0.60;0.60;;;;;;;22.15;39.75;100812.78;4512076;28;20046;-58
2023/04/16 03:37:22;;;;;;;0.70;0.70;;;;;;;22.23;39.95;100824.47;4529883;28;20053;-58
2023/04/16 03:39:34;;;;;;;0.50;0.50;;;;;;;22.23;39.75;100828.19;4514445;28;20561;-58
2023/04/16 03:41:45;;;;;;;0.50;0.50;;;;;;;22.18;39.83;100826.41;4526791;28;20549;-58
2023/04/16 03:43:55;;;;;;;0.50;0.50;;;;;;;22.19;39.70;100818.63;4533843;28;20139;-58
2023/04/16 03:46:06;;;;;;;0.73;0.60;;;;;;;22.21;40.01;100822.78;4524624;28;20034;-59
2023/04/16 03:48:17;;;;;;;0.57;0.57;;;;;;;22.16;40.04;100822.25;4521825;28;20813;-58
2023/04/16 03:50:27;;;;;;;0.57;0.57;;;;;;;22.20;39.66;100829.75;4535085;28;20053;-58
2023/04/16 03:52:38;;;;;;;0.60;0.60;;;;;;;22.20;39.81;100824.00;4513773;28;20148;-58
2023/04/16 03:54:49;;;;;;;0.50;0.50;;;;;;;22.20;39.91;100824.00;4514173;28;20061;-58
2023/04/16 03:57:09;;;;;;;0.43;0.43;;;;;;;22.19;40.00;100827.25;4530722;28;20042;-58
2023/04/16 03:59:21;;;;;;;0.47;0.47;;;;;;;22.20;39.85;100829.75;4518862;28;20177;-58
2023/04/16 04:01:31;;;;;;;0.40;0.40;;;;;;;22.18;40.13;100817.78;4515689;28;20068;-58
2023/04/16 04:03:42;;;;;;;0.50;0.50;;;;;;;22.16;39.79;100823.09;4536185;28;20098;-58
2023/04/16 04:05:52;;;;;;;0.70;0.70;;;;;;;22.09;39.64;100807.69;4536819;28;20021;-58
2023/04/16 04:08:09;;;;;;;0.60;0.60;;;;;;;22.19;40.20;100833.00;4534422;28;20032;-58
2023/04/16 04:10:20;;;;;;;0.50;0.50;;;;;;;22.17;39.78;100827.63;4534349;28;20037;-58
2023/04/16 04:12:31;;;;;;;1.02;0.50;;;;;;;22.19;39.69;100839.59;4520605;28;20041;-60
2023/04/16 04:14:41;;;;;;;0.50;0.50;;;;;;;22.18;39.83;100837.91;4537516;28;20041;-59
2023/04/16 04:16:52;;;;;;;0.60;0.50;;;;;;;22.13;39.89;100823.00;4517887;28;20044;-58
2023/04/16 04:19:02;;;;;;;0.50;0.50;;;;;;;22.17;39.71;100838.28;4518513;28;20038;-58
2023/04/16 04:21:13;;;;;;;0.50;0.50;;;;;;;22.17;40.20;100839.13;4534931;28;20025;-59
2023/04/16 04:23:23;;;;;;;0.50;0.50;;;;;;;22.20;40.11;100849.88;4526011;28;20144;-59
2023/04/16 04:25:34;;;;;;;0.50;0.50;;;;;;;22.19;39.75;100842.47;4518734;28;20635;-58
2023/04/16 04:27:44;;;;;;;0.60;0.60;;;;;;;22.17;40.24;100850.63;4517841;28;20052;-59
2023/04/16 04:29:55;;;;;;;0.50;0.50;;;;;;;22.19;39.98;100853.97;4516585;28;20040;-59
2023/04/16 04:32:06;;;;;;;0.50;0.50;;;;;;;22.18;40.10;100858.03;4536629;28;20541;-60
2023/04/16 04:34:17;;;;;;;0.60;0.60;;;;;;;22.11;39.90;100846.38;4532687;28;20036;-60
2023/04/16 04:36:28;;;;;;;0.55;0.55;;;;;;;22.16;39.96;100853.88;4512690;28;20037;-59
2023/04/16 04:38:38;;;;;;;0.50;0.50;;;;;;;22.14;39.95;100854.25;4533689;28;20494;-59
2023/04/16 04:40:52;;;;;;;0.50;0.50;;;;;;;22.15;40.25;100861.66;4517362;28;20213;-60
2023/04/16 04:43:04;;;;;;;0.60;0.60;;;;;;;22.14;39.99;100857.13;4507743;28;20167;-61
2023/04/16 04:45:15;;;;;;;0.50;0.50;;;;;;;22.11;39.94;100851.28;4522054;28;20145;-59
2023/04/16 04:47:25;;;;;;;0.50;0.50;;;;;;;22.09;39.88;100851.66;4519164;28;20040;-58
2023/04/16 04:49:37;;;;;;;0.50;0.50;;;;;;;22.03;40.00;100847.41;4535288;28;20037;-59
2023/04/16 04:51:47;;;;;;;0.65;0.60;;;;;;;22.16;40.16;100874.84;4533353;28;20026;-58
2023/04/16 04:53:58;;;;;;;0.60;0.60;;;;;;;22.09;40.00;100857.41;4535394;28;20034;-59
2023/04/16 04:56:08;;;;;;;0.60;0.60;;;;;;;22.08;40.26;100867.25;4516740;28;20041;-58
2023/04/16 04:58:19;;;;;;;0.40;0.40;;;;;;;22.12;39.75;100873.91;4533958;28;20064;-59
2023/04/16 05:00:30;;;;;;;0.50;0.50;;;;;;;22.15;39.98;100876.03;4533273;28;20069;-58
2023/04/16 05:02:41;;;;;;;0.47;0.47;;;;;;;22.16;39.82;100874.00;4532132;28;20040;-58
2023/04/16 05:04:51;;;;;;;0.52;0.50;;;;;;;22.12;40.17;100873.91;4532003;28;20036;-58
2023/04/16 05:07:02;;;;;;;0.60;0.60;;;;;;;22.15;40.22;100876.03;4530949;28;20044;-58
2023/04/16 05:09:12;;;;;;;0.60;0.60;;;;;;;22.08;40.16;100866.41;4532599;28;20086;-58
2023/04/16 05:11:22;;;;;;;0.60;0.60;;;;;;;22.07;39.98;100874.19;4532530;28;20036;-59
2023/04/16 05:13:33;;;;;;;0.60;0.60;;;;;;;22.14;40.24;100882.16;4531706;28;20039;-59
2023/04/16 05:15:44;;;;;;;0.60;0.60;;;;;;;22.07;40.24;100871.31;4532535;28;20029;-58
2023/04/16 05:17:55;;;;;;;0.52;0.52;;;;;;;22.12;40.02;100888.28;4535722;28;20787;-58
2023/04/16 05:20:07;;;;;;;0.60;0.60;;;;;;;22.12;39.95;100899.78;4533783;28;20431;-58
2023/04/16 05:22:17;;;;;;;0.60;0.60;;;;;;;22.15;39.76;100896.16;4535006;28;20110;-58
2023/04/16 05:24:28;;;;;;;0.60;0.60;;;;;;;22.14;40.04;100899.41;4534629;28;21039;-59
2023/04/16 05:26:38;;;;;;;0.68;0.68;;;;;;;22.14;39.97;100911.75;4533468;28;20029;-58
2023/04/16 05:28:49;;;;;;;0.50;0.50;;;;;;;22.12;39.90;100907.56;4531592;28;20596;-58
2023/04/16 05:30:59;;;;;;;0.60;0.60;;;;;;;22.13;39.84;100915.84;4530571;28;20075;-58
2023/04/16 05:33:09;;;;;;;0.70;0.70;;;;;;;22.09;39.81;100903.41;4532472;28;20867;-59
2023/04/16 05:35:20;;;;;;;0.70;0.70;;;;;;;22.16;40.03;100920.00;4531283;28;20043;-58
2023/04/16 05:37:31;;;;;;;0.60;0.60;;;;;;;22.15;40.10;100919.16;4534897;28;20123;-58
2023/04/16 05:39:41;;;;;;;0.60;0.60;;;;;;;22.13;40.15;100921.59;4515354;28;20585;-58
2023/04/16 05:41:52;;;;;;;0.60;0.60;;;;;;;22.13;40.18;100932.25;4533610;28;20025;-59
2023/04/16 05:44:02;;;;;;;0.70;0.70;;;;;;;22.14;39.84;100936.78;4531663;28;20043;-58
2023/04/16 05:46:13;;;;;;;0.50;0.50;;;;;;;22.12;40.14;100931.41;4532887;28;20029;-59
2023/04/16 05:48:23;;;;;;;0.80;0.77;;;;;;;22.10;40.19;100938.75;4534094;28;20132;-59
2023/04/16 05:50:34;;;;;;;0.60;0.60;;;;;;;22.11;39.68;100947.00;4533863;28;20835;-58
2023/04/16 05:52:45;;;;;;;0.52;0.52;;;;;;;22.14;39.72;100943.38;4532071;28;20040;-58
2023/04/16 05:54:56;;;;;;;0.50;0.50;;;;;;;22.13;39.71;100946.63;4534747;28;20041;-59
2023/04/16 05:57:07;;;;;;;0.60;0.60;;;;;;;22.08;40.19;100941.13;4533663;28;20593;-58
2023/04/16 05:59:17;;;;;;;0.50;0.50;;;;;;;22.06;40.11;100944.38;4532261;28;20029;-58
2023/04/16 06:01:28;;;;;;;0.57;0.57;;;;;;;22.11;39.83;100946.16;4496782;28;20045;-58
2023/04/16 06:03:38;;;;;;;0.50;0.50;;;;;;;22.14;39.91;100951.16;4529450;28;20038;-59
2023/04/16 06:05:49;;;;;;;0.60;0.50;;;;;;;22.07;39.83;100940.28;4531213;28;20410;-59
2023/04/16 06:07:59;;;;;;;0.60;0.60;;;;;;;22.12;40.26;100954.41;4533715;28;20045;-59
2023/04/16 06:10:10;;;;;;;0.52;0.52;;;;;;;22.08;39.77;100944.00;4517120;28;20026;-58
2023/04/16 06:12:20;;;;;;;0.70;0.70;;;;;;;22.10;39.74;100951.06;4531410;28;20047;-59
2023/04/16 06:14:31;;;;;;;0.70;0.70;;;;;;;22.10;40.14;100956.00;4531395;28;20096;-59
2023/04/16 06:16:41;;;;;;;0.50;0.50;;;;;;;22.04;40.15;100946.78;4532734;28;20119;-59
2023/04/16 06:18:51;;;;;;;0.50;0.50;;;;;;;21.99;40.32;100934.75;4532544;28;20044;-60
2023/04/16 06:21:03;;;;;;;0.70;0.70;;;;;;;22.09;39.90;100960.91;4531759;28;20118;-58
2023/04/16 06:23:14;;;;;;;0.52;0.52;;;;;;;22.10;39.76;100956.00;4514815;28;20033;-58
2023/04/16 06:25:25;;;;;;;0.60;0.60;;;;;;;22.11;40.04;100964.25;4532521;28;20029;-58
2023/04/16 06:27:36;;;;;;;1.70;0.70;;;;;;;22.09;40.27;100960.91;4528886;28;20041;-59
2023/04/16 06:29:46;;;;;;;0.93;0.70;;;;;;;22.08;39.99;100961.25;4532252;28;20036;-58
2023/04/16 06:31:56;;;;;;;2.15;1.00;;;;;;;22.11;39.97;100970.00;4516198;28;20022;-59
2023/04/16 06:34:08;;;;;;;3.25;1.10;;;;;;;22.08;40.46;100967.00;4532799;28;20077;-58
2023/04/16 06:36:19;;;;;;;3.53;1.27;;;;;;;22.08;40.44;100981.38;4532153;28;20203;-58
2023/04/16 06:38:29;;;;;;;3.03;1.13;;;;;;;22.09;40.36;100978.16;4533770;28;20602;-59
2023/04/16 06:40:40;;;;;;;3.60;1.60;;;;;;;22.05;40.69;100977.22;4532922;28;20094;-58
2023/04/16 06:42:50;;;;;;;4.82;1.60;;;;;;;22.06;40.54;100980.91;4513219;28;20025;-59
2023/04/16 06:45:01;;;;;;;3.10;1.60;;;;;;;22.00;40.53;100968.03;4530740;28;20032;-58
2023/04/16 06:47:11;;;;;;;4.72;1.55;;;;;;;22.04;40.31;100987.03;4532468;28;20487;-58
2023/04/16 06:49:22;;;;;;;4.88;1.50;;;;;;;22.02;40.57;100986.56;4515920;28;20030;-60
2023/04/16 06:51:32;;;;;;;4.57;1.63;;;;;;;22.09;40.41;100989.66;4530505;28;20401;-58
2023/04/16 06:53:43;;;;;;;4.25;1.67;;;;;;;22.02;40.79;100989.44;4533139;28;20112;-58
2023/04/16 06:55:53;;;;;;;5.93;2.00;;;;;;;21.99;40.25;100974.97;4531714;28;20033;-58
2023/04/16 06:58:04;;;;;;;4.35;1.90;;;;;;;22.01;40.84;100975.44;4530234;28;20509;-58
2023/04/16 07:00:14;;;;;;;4.13;1.70;;;;;;;22.05;40.38;100988.72;4519049;28;20128;-58
2023/04/16 07:02:25;;;;;;;5.18;1.90;;;;;;;22.05;40.72;100977.22;4529884;28;20036;-58
2023/04/16 07:04:35;;;;;;;5.18;1.80;;;;;;;22.03;40.73;100982.50;4530136;28;20041;-58
2023/04/16 07:06:46;;;;;;;4.75;1.95;;;;;;;22.08;40.65;101002.34;4531509;28;20029;-58
2023/04/16 07:08:56;;;;;;;4.13;1.52;;;;;;;22.03;40.68;100985.38;4533275;28;20025;-58
2023/04/16 07:11:07;;;;;;;3.63;1.60;;;;;;;22.02;40.78;100983.69;4529548;28;20464;-57
2023/04/16 07:13:17;;;;;;;3.33;1.50;;;;;;;22.01;40.50;100989.78;4530193;28;20045;-59
2023/04/16 07:15:27;;;;;;;5.10;1.77;;;;;;;22.03;40.60;100991.13;4531923;28;20033;-59
2023/04/16 07:17:38;;;;;;;4.22;1.73;;;;;;;22.03;40.66;100998.91;4531917;28;20041;-57
2023/04/16 07:19:50;;;;;;;4.07;1.63;;;;;;;22.07;40.54;101008.47;4531566;28;20032;-58
2023/04/16 07:22:00;;;;;;;4.03;1.73;;;;;;;22.04;40.49;101010.03;4531610;28;20227;-58
2023/04/16 07:24:11;;;;;;;3.65;1.70;;;;;;;22.05;40.51;101014.59;4529398;28;20038;-61
2023/04/16 07:26:22;;;;;;;3.90;1.70;;;;;;;22.08;40.42;101015.88;4530035;28;20024;-58
2023/04/16 07:28:32;;;;;;;4.18;1.65;;;;;;;22.06;40.39;101016.25;4535794;28;20041;-58
2023/04/16 07:30:43;;;;;;;3.47;1.63;;;;;;;21.97;40.49;100997.50;4529981;28;20041;-58
2023/04/16 07:32:54;;;;;;;3.42;1.40;;;;;;;22.07;40.44;101017.91;4531703;28;20026;-57
2023/04/16 07:35:05;;;;;;;3.60;1.67;;;;;;;22.04;40.47;101015.78;4533710;28;20637;-57
2023/04/16 07:37:15;;;;;;;3.35;1.48;;;;;;;22.02;40.80;101018.19;4531139;28;21049;-58
2023/04/16 07:39:26;;;;;;;5.55;1.77;;;;;;;21.90;40.57;101000.16;4530936;28;20515;-59
2023/04/16 07:41:36;;;;;;;5.32;1.52;;;;;;;22.06;40.68;101030.63;4530239;28;20043;-58
2023/04/16 07:43:47;;;;;;;2.92;1.50;;;;;;;22.01;40.82;101022.25;4534141;28;20127;-58
2023/04/16 07:45:57;;;;;;;4.13;1.55;;;;;;;21.97;40.67;101027.09;4531802;28;20033;-57
2023/04/16 07:48:08;;;;;;;3.92;1.50;;;;;;;22.05;40.63;101025.25;4531152;28;20632;-58
2023/04/16 07:50:18;;;;;;;3.25;1.50;;;;;;;22.07;40.43;101035.16;4529535;28;20496;-57
2023/04/16 07:52:28;;;;;;;3.45;1.48;;;;;;;22.03;40.42;101034.25;4531619;28;20043;-58
2023/04/16 07:54:39;;;;;;;3.78;1.60;;;;;;;22.05;40.56;101040.47;4528994;28;20037;-57
2023/04/16 07:56:49;;;;;;;3.38;1.42;;;;;;;22.05;40.39;101037.59;4530573;28;20072;-57
2023/04/16 07:59:00;;;;;;;5.50;1.90;;;;;;;22.04;40.48;101040.84;4530721;28;20516;-58
2023/04/16 08:01:10;;;;;;;4.88;1.60;;;;;;;22.07;40.51;101043.78;4527799;28;20094;-58
2023/04/16 08:03:21;;;;;;;2.92;1.60;;;;;;;22.08;40.32;101045.47;4530489;28;20045;-58
2023/04/16 08:05:31;;;;;;;2.95;1.60;;;;;;;22.05;40.99;101051.97;4532703;28;20127;-58
2023/04/16 08:07:42;;;;;;;4.05;1.45;;;;;;;22.07;40.83;101054.47;4532373;28;20112;-58
2023/04/16 08:09:53;;;;;;;3.30;1.60;;;;;;;22.06;40.63;101062.25;4532151;28;20360;-58
2023/04/16 08:12:04;;;;;;;3.33;2.10;;;;;;;22.07;40.75;101052.41;4531805;28;20123;-58
2023/04/16 08:14:17;;;;;;;3.20;1.70;;;;;;;22.03;40.91;101054.38;4531437;28;20124;-58
2023/04/16 08:16:28;;;;;;;2.80;1.40;;;;;;;22.06;40.51;101065.13;4530848;28;21637;-58
2023/04/16 08:18:38;;;;;;;3.55;1.83;;;;;;;22.05;40.52;101062.63;4531809;28;20040;-58
2023/04/16 08:20:48;;;;;;;2.83;1.70;;;;;;;22.04;40.68;101067.53;4529994;28;20244;-57
2023/04/16 08:22:59;;;;;;;2.83;1.55;;;;;;;22.07;40.38;101075.41;4515079;28;20041;-58
2023/04/16 08:25:09;;;;;;;4.40;1.85;;;;;;;22.05;40.72;101072.09;4535384;28;20049;-58
2023/04/16 08:27:20;;;;;;;3.28;1.55;;;;;;;22.02;40.46;101069.09;4532038;28;20037;-59
2023/04/16 08:29:30;;;;;;;3.88;1.35;;;;;;;22.06;40.80;101082.38;4534328;28;20048;-57
2023/04/16 08:31:41;;;;;;;2.90;1.83;;;;;;;22.07;40.80;101084.03;4510536;28;20038;-57
2023/04/16 08:33:51;;;;;;;3.38;2.00;;;;;;;22.06;40.51;101075.78;4533842;28;20057;-57
2023/04/16 08:36:02;;;;;;;2.75;1.60;;;;;;;22.10;40.56;101091.94;4531558;28;20041;-59
2023/04/16 08:38:12;;;;;;;4.47;1.70;;;;;;;22.07;40.51;101083.22;4533180;28;20078;-58
2023/04/16 08:40:27;;;;;;;3.17;1.90;;;;;;;22.07;40.87;101078.28;4533461;28;20037;-57
2023/04/16 08:42:56;;;;;;;3.03;1.67;;;;;;;22.12;40.54;101097.31;4532074;28;20030;-58
2023/04/16 08:45:12;;;;;;;3.22;1.67;;;;;;;22.13;40.75;101085.47;4534113;28;20037;-57
2023/04/16 08:47:25;;;;;;;2.95;1.58;;;;;;;22.09;40.34;101087.38;4523145;28;20029;-57
2023/04/16 08:49:43;;;;;;;3.53;1.77;;;;;;;22.09;40.44;101084.50;4533196;28;20036;-58
2023/04/16 08:51:55;;;;;;;3.65;3.30;;;;;;;21.77;38.30;101091.31;4533092;28;20115;-57
2023/04/16 08:54:13;;;;;;;4.90;4.38;;;;;;;21.64;35.99;101092.56;4533785;28;21071;-58
2023/04/16 08:56:25;;;;;;;4.72;4.10;;;;;;;21.60;36.27;101094.47;4533439;28;20073;-58
2023/04/16 08:58:37;;;;;;;4.53;4.13;;;;;;;21.53;36.45;101094.22;4534173;28;20034;-58
2023/04/16 09:00:48;;;;;;;4.18;3.78;;;;;;;21.54;36.57;101103.69;4534150;28;20029;-58
2023/04/16 09:02:59;;;;;;;4.57;4.18;;;;;;;21.49;36.49;101096.16;4534322;28;20599;-58
2023/04/16 09:05:13;;;;;;;4.43;4.03;;;;;;;21.43;36.70;101091.88;4532947;28;20033;-60
2023/04/16 09:07:25;;;;;;;4.32;3.92;;;;;;;21.48;36.46;101103.09;4533961;28;20067;-58
2023/04/16 09:09:37;;;;;;;4.03;3.65;;;;;;;21.48;36.78;101105.97;4532412;28;20041;-58
2023/04/16 09:11:51;;;;;;;4.72;4.10;;;;;;;21.48;36.50;101105.97;4534881;28;20543;-59
2023/04/16 09:14:02;;;;;;;4.18;3.78;;;;;;;21.42;36.85;101100.84;4533952;28;20036;-59
2023/04/16 09:16:14;;;;;;;4.18;3.78;;;;;;;21.46;36.86;101111.25;4530889;28;20033;-59
2023/04/16 09:18:24;;;;;;;4.30;3.90;;;;;;;21.46;36.92;101105.50;4534204;28;20091;-58
2023/04/16 09:20:35;;;;;;;4.20;3.80;;;;;;;21.43;37.12;101100.47;4534411;28;20127;-58
2023/04/16 09:22:45;;;;;;;4.13;3.72;;;;;;;21.45;37.24;101105.84;4532056;28;20139;-58
2023/04/16 09:24:56;;;;;;;4.60;4.10;;;;;;;21.44;37.74;101099.28;4532855;28;20481;-57
2023/04/16 09:27:07;;;;;;;4.00;3.70;;;;;;;21.39;37.50;101095.81;4534099;28;20032;-57
2023/04/16 09:29:36;;;;;;;4.38;3.97;;;;;;;21.42;37.83;101104.53;4533352;28;20723;-58
2023/04/16 09:32:04;;;;;;;3.95;3.55;;;;;;;21.37;37.58;101104.81;4532759;28;20029;-58
2023/04/16 09:34:15;;;;;;;3.80;3.40;;;;;;;21.23;37.64;101084.22;4532107;28;20607;-58
2023/04/16 09:36:26;;;;;;;3.60;3.30;;;;;;;21.38;37.52;101102.75;4534189;28;20869;-58
2023/04/16 09:38:51;;;;;;;3.70;3.40;;;;;;;21.42;37.26;101116.00;4532164;28;20045;-58
2023/04/16 09:41:07;;;;;;;3.83;3.47;;;;;;;21.43;36.86;101123.44;4531006;28;20040;-58
2023/04/16 09:43:17;;;;;;;4.07;3.67;;;;;;;21.44;37.31;101125.13;4532847;28;20030;-58
2023/04/16 09:45:32;;;;;;;4.47;4.07;;;;;;;21.43;37.45;101125.47;4530652;28;20785;-58
2023/04/16 09:47:45;;;;;;;4.57;3.70;;;;;;;21.40;37.10;101115.56;4532711;28;20593;-58
2023/04/16 09:49:57;;;;;;;4.28;3.88;;;;;;;21.40;37.41;101114.72;4534008;28;20690;-58
2023/04/16 09:52:13;;;;;;;4.22;3.83;;;;;;;21.44;37.69;101121.41;4533340;28;20048;-58
2023/04/16 09:54:25;;;;;;;4.88;4.30;;;;;;;21.44;37.56;101128.00;4534771;28;20576;-58
2023/04/16 09:56:43;;;;;;;4.40;4.00;;;;;;;21.45;38.19;101125.97;4532116;28;20075;-58
2023/04/16 09:58:59;;;;;;;4.50;4.10;;;;;;;21.41;37.76;101122.97;4534122;28;20036;-58
2023/04/16 10:01:11;;;;;;;4.43;4.03;;;;;;;21.44;38.72;101128.00;4506531;28;20049;-58
2023/04/16 10:03:30;;;;;;;4.50;4.10;;;;;;;21.37;37.55;101115.44;4533224;28;20029;-58
2023/04/16 10:05:41;;;;;;;4.60;3.78;;;;;;;21.44;37.77;101127.13;4534230;28;20490;-58
2023/04/16 10:07:51;;;;;;;4.22;3.83;;;;;;;21.41;37.53;101122.13;4534127;28;20090;-58
2023/04/16 10:10:03;;;;;;;4.43;4.03;;;;;;;21.45;37.99;101134.56;4531105;28;20044;-59